createdAt,value
2018-04-12T00:01:59.680Z,11.50
2018-04-12T00:04:26.078Z,11.50
2018-04-12T00:06:52.325Z,11.50
2018-04-12T00:09:19.330Z,11.40
2018-04-12T00:11:45.576Z,11.40
2018-04-12T00:14:11.864Z,11.40
2018-04-12T00:16:38.087Z,11.40
2018-04-12T00:19:05.113Z,11.40
2018-04-12T00:21:31.359Z,11.40
2018-04-12T00:23:57.594Z,11.40
2018-04-12T00:26:23.821Z,11.30
2018-04-12T00:28:50.124Z,11.30
2018-04-12T00:31:16.356Z,11.30
2018-04-12T00:33:42.593Z,11.30
2018-04-12T00:36:09.561Z,11.30
2018-04-12T00:38:35.790Z,11.30
2018-04-12T00:41:02.827Z,11.30
2018-04-12T00:43:29.067Z,11.30
2018-04-12T00:45:55.346Z,11.30
2018-04-12T00:48:21.620Z,11.30
2018-04-12T00:50:47.890Z,11.30
2018-04-12T00:53:20.125Z,11.30
2018-04-12T00:55:47.090Z,11.30
2018-04-12T00:58:13.336Z,11.30
2018-04-12T01:00:39.627Z,11.30
2018-04-12T01:03:05.850Z,11.30
2018-04-12T01:05:32.096Z,11.30
2018-04-12T01:07:58.336Z,11.30
2018-04-12T01:10:24.602Z,11.30
2018-04-12T01:12:50.863Z,11.40
2018-04-12T01:15:17.094Z,11.40
2018-04-12T01:17:43.311Z,11.30
2018-04-12T01:20:09.545Z,11.30
2018-04-12T01:22:35.839Z,11.30
2018-04-12T01:25:02.118Z,11.30
2018-04-12T01:27:29.098Z,11.30
2018-04-12T01:29:55.326Z,11.20
2018-04-12T01:32:21.704Z,11.30
2018-04-12T01:34:47.995Z,11.30
2018-04-12T01:37:14.255Z,11.20
2018-04-12T01:39:40.478Z,11.30
2018-04-12T01:42:06.738Z,11.30
2018-04-12T01:44:32.984Z,11.20
2018-04-12T01:46:59.955Z,11.20
2018-04-12T01:49:26.159Z,11.20
2018-04-12T01:51:52.514Z,11.20
2018-04-12T01:54:19.623Z,11.20
2018-04-12T01:56:45.958Z,11.20
2018-04-12T01:59:12.182Z,11.20
2018-04-12T02:01:38.569Z,11.20
2018-04-12T02:04:04.835Z,11.20
2018-04-12T02:06:31.101Z,11.20
2018-04-12T02:08:57.367Z,11.30
2018-04-12T02:11:23.716Z,11.20
2018-04-12T02:13:50.011Z,11.30
2018-04-12T02:16:16.301Z,11.30
2018-04-12T02:18:42.655Z,11.30
2018-04-12T02:21:08.903Z,11.30
2018-04-12T02:23:35.145Z,11.30
2018-04-12T02:26:01.399Z,11.30
2018-04-12T02:28:27.670Z,11.30
2018-04-12T02:30:53.904Z,11.30
2018-04-12T02:33:20.914Z,11.30
2018-04-12T02:35:47.177Z,11.30
2018-04-12T02:38:13.571Z,11.40
2018-04-12T02:40:39.795Z,11.40
2018-04-12T02:43:06.872Z,11.40
2018-04-12T02:45:33.092Z,11.40
2018-04-12T02:48:00.048Z,11.40
2018-04-12T02:50:26.297Z,11.40
2018-04-12T02:52:52.631Z,11.40
2018-04-12T02:55:19.679Z,11.40
2018-04-12T02:57:45.963Z,11.40
2018-04-12T03:00:12.305Z,11.40
2018-04-12T03:02:38.562Z,11.50
2018-04-12T03:05:04.816Z,11.50
2018-04-12T03:07:31.056Z,11.50
2018-04-12T03:09:57.320Z,11.50
2018-04-12T03:14:55.987Z,11.50
2018-04-12T03:17:23.018Z,11.50
2018-04-12T03:19:49.273Z,11.50
2018-04-12T03:22:16.283Z,11.60
2018-04-12T03:24:42.556Z,11.60
2018-04-12T03:27:08.807Z,11.60
2018-04-12T03:29:37.152Z,11.60
2018-04-12T03:32:03.496Z,11.60
2018-04-12T03:34:29.723Z,11.60
2018-04-12T03:36:55.948Z,11.60
2018-04-12T03:39:22.975Z,11.60
2018-04-12T03:41:49.219Z,11.60
2018-04-12T03:44:15.466Z,11.60
2018-04-12T03:46:41.700Z,11.60
2018-04-12T03:49:08.035Z,11.60
2018-04-12T03:51:34.331Z,11.60
2018-04-12T03:54:00.599Z,11.60
2018-04-12T03:56:26.856Z,11.60
2018-04-12T03:58:53.121Z,11.60
2018-04-12T04:01:19.414Z,11.60
2018-04-12T04:03:45.633Z,11.60
2018-04-12T04:06:11.887Z,11.60
2018-04-12T04:08:38.831Z,11.50
2018-04-12T04:11:05.849Z,11.50
2018-04-12T04:13:32.148Z,11.50
2018-04-12T04:16:10.629Z,11.50
2018-04-12T04:18:49.424Z,11.50
2018-04-12T04:21:15.720Z,11.50
2018-04-12T04:23:42.038Z,11.50
2018-04-12T04:26:08.504Z,11.40
2018-04-12T04:28:34.863Z,11.40
2018-04-12T04:31:01.175Z,11.40
2018-04-12T04:33:27.407Z,11.40
2018-04-12T04:35:53.606Z,11.40
2018-04-12T04:38:19.945Z,11.40
2018-04-12T04:40:46.887Z,11.40
2018-04-12T04:43:13.213Z,11.40
2018-04-12T04:45:39.473Z,11.40
2018-04-12T04:48:06.523Z,11.50
2018-04-12T04:50:32.760Z,11.50
2018-04-12T04:52:59.154Z,11.50
2018-04-12T04:55:25.395Z,11.50
2018-04-12T04:57:51.793Z,11.50
2018-04-12T05:00:18.029Z,11.50
2018-04-12T05:02:44.303Z,11.60
2018-04-12T05:05:10.587Z,11.60
2018-04-12T05:07:36.973Z,11.60
2018-04-12T05:10:03.250Z,11.60
2018-04-12T05:12:29.539Z,11.70
2018-04-12T05:14:55.804Z,11.70
2018-04-12T05:17:23.341Z,11.70
2018-04-12T05:22:48.679Z,11.80
2018-04-12T05:25:16.017Z,11.80
2018-04-12T05:27:42.352Z,11.80
2018-04-12T05:30:14.277Z,11.80
2018-04-12T05:32:40.561Z,11.90
2018-04-12T05:35:11.156Z,11.90
2018-04-12T05:37:39.611Z,11.90
2018-04-12T05:40:09.433Z,11.90
2018-04-12T05:42:35.958Z,11.90
2018-04-12T05:45:03.008Z,11.90
2018-04-12T05:47:29.290Z,11.90
2018-04-12T05:49:56.380Z,12.10
2018-04-12T05:52:23.943Z,12.20
2018-04-12T05:54:50.243Z,12.10
2018-04-12T05:57:16.573Z,12.20
2018-04-12T05:59:42.831Z,12.30
2018-04-12T06:02:09.156Z,12.30
2018-04-12T06:04:37.501Z,12.40
2018-04-12T06:07:03.922Z,12.40
2018-04-12T06:09:30.965Z,12.50
2018-04-12T06:11:57.275Z,12.50
2018-04-12T06:14:23.507Z,12.50
2018-04-12T06:16:49.794Z,12.60
2018-04-12T06:19:16.056Z,12.60
2018-04-12T06:21:43.328Z,12.70
2018-04-12T06:24:09.845Z,12.60
2018-04-12T06:26:36.411Z,12.70
2018-04-12T06:29:07.612Z,12.80
2018-04-12T06:31:36.922Z,12.70
2018-04-12T06:34:05.708Z,12.90
2018-04-12T06:36:31.984Z,13.00
2018-04-12T06:39:01.913Z,13.10
2018-04-12T06:41:32.381Z,13.30
2018-04-12T06:44:05.985Z,13.30
2018-04-12T06:46:32.562Z,13.40
2018-04-12T06:49:03.941Z,13.60
2018-04-12T06:51:31.489Z,13.60
2018-04-12T06:54:00.357Z,13.70
2018-04-12T06:56:36.165Z,13.70
2018-04-12T06:59:04.848Z,14.00
2018-04-12T07:01:36.145Z,13.90
2018-04-12T07:04:05.420Z,14.10
2018-04-12T07:06:35.576Z,14.20
2018-04-12T07:09:05.834Z,14.10
2018-04-12T07:11:34.188Z,14.00
2018-04-12T07:14:05.599Z,14.10
2018-04-12T07:16:32.752Z,14.10
2018-04-12T07:19:08.043Z,14.20
2018-04-12T07:21:35.511Z,14.30
2018-04-12T07:24:13.038Z,14.50
2018-04-12T07:26:41.139Z,14.80
2018-04-12T07:29:10.747Z,14.90
2018-04-12T07:31:40.875Z,14.80
2018-04-12T07:34:08.770Z,15.00
2018-04-12T07:36:41.111Z,15.10
2018-04-12T07:39:11.405Z,15.20
2018-04-12T07:41:39.354Z,15.30
2018-04-12T07:44:05.845Z,15.30
2018-04-12T07:46:33.772Z,15.40
2018-04-12T07:49:01.550Z,15.40
2018-04-12T07:51:28.600Z,15.50
2018-04-12T07:53:55.339Z,15.50
2018-04-12T07:56:21.784Z,15.50
2018-04-12T07:58:48.530Z,15.60
2018-04-12T08:01:14.844Z,15.70
2018-04-12T08:03:41.234Z,15.80
2018-04-12T08:06:07.575Z,15.90
2018-04-12T08:08:34.102Z,15.90
2018-04-12T08:11:01.212Z,16.10
2018-04-12T08:13:27.952Z,16.10
2018-04-12T08:15:55.061Z,16.20
2018-04-12T08:18:21.835Z,16.20
2018-04-12T08:20:49.261Z,16.30
2018-04-12T08:23:15.593Z,16.30
2018-04-12T08:25:41.986Z,16.40
2018-04-12T08:28:08.349Z,16.50
2018-04-12T08:30:34.587Z,16.60
2018-04-12T08:33:00.917Z,16.60
2018-04-12T08:35:27.273Z,16.70
2018-04-12T08:37:53.623Z,16.80
2018-04-12T08:40:20.077Z,16.90
2018-04-12T08:42:46.332Z,16.90
2018-04-12T08:45:12.779Z,17.10
2018-04-12T08:47:39.593Z,17.20
2018-04-12T08:50:11.593Z,17.30
2018-04-12T08:52:40.089Z,17.40
2018-04-12T08:55:08.279Z,17.40
2018-04-12T08:57:42.215Z,17.50
2018-04-12T09:03:13.148Z,17.70
2018-04-12T09:05:42.532Z,17.80
2018-04-12T09:08:13.893Z,18.00
2018-04-12T09:16:46.750Z,18.20
2018-04-12T09:19:13.124Z,18.30
2018-04-12T09:21:39.364Z,18.40
2018-04-12T09:24:05.701Z,18.40
2018-04-12T09:26:32.198Z,18.50
2018-04-12T09:28:58.458Z,18.50
2018-04-12T09:31:24.965Z,18.60
2018-04-12T09:33:51.387Z,18.70
2018-04-12T09:36:18.134Z,18.70
2018-04-12T09:38:44.419Z,18.70
2018-04-12T09:41:10.981Z,18.70
2018-04-12T09:43:37.275Z,18.80
2018-04-12T09:46:04.087Z,19.00
2018-04-12T09:48:30.535Z,19.20
2018-04-12T09:50:58.051Z,19.40
2018-04-12T09:53:24.578Z,19.40
2018-04-12T09:55:51.416Z,19.50
2018-04-12T09:58:18.872Z,19.60
2018-04-12T10:00:52.741Z,19.80
2018-04-12T10:05:58.997Z,20.10
2018-04-12T10:08:42.209Z,20.20
2018-04-12T10:11:09.809Z,20.20
2018-04-12T10:13:39.141Z,20.30
2018-04-12T10:16:05.987Z,20.30
2018-04-12T10:18:53.897Z,20.40
2018-04-12T10:21:27.430Z,20.70
2018-04-12T10:23:57.341Z,20.70
2018-04-12T10:26:23.626Z,20.80
2018-04-12T10:28:49.929Z,20.80
2018-04-12T10:31:17.019Z,20.90
2018-04-12T10:36:27.236Z,21.00
2018-04-12T10:38:54.978Z,21.20
2018-04-12T10:41:21.347Z,21.20
2018-04-12T10:43:49.150Z,21.20
2018-04-12T10:46:16.021Z,21.40
2018-04-12T10:48:59.954Z,21.50
2018-04-12T10:51:26.974Z,21.60
2018-04-12T10:53:53.427Z,21.70
2018-04-12T10:56:19.911Z,21.80
2018-04-12T10:58:46.241Z,21.70
2018-04-12T11:01:12.581Z,21.60
2018-04-12T11:03:38.968Z,21.70
2018-04-12T11:06:10.214Z,22.00
2018-04-12T11:08:36.475Z,22.00
2018-04-12T11:11:02.959Z,22.30
2018-04-12T11:13:29.314Z,22.20
2018-04-12T11:15:55.680Z,22.40
2018-04-12T11:18:22.524Z,22.50
2018-04-12T11:20:49.101Z,22.40
2018-04-12T11:23:16.769Z,22.50
2018-04-12T11:25:43.876Z,22.80
2018-04-12T11:28:10.197Z,22.80
2018-04-12T11:30:36.466Z,22.60
2018-04-12T11:33:04.115Z,22.60
2018-04-12T11:35:30.411Z,22.60
2018-04-12T11:38:08.026Z,22.80
2018-04-12T11:40:34.405Z,22.50
2018-04-12T11:43:00.707Z,22.60
2018-04-12T11:45:27.028Z,22.90
2018-04-12T11:47:53.279Z,22.80
2018-04-12T11:50:19.570Z,22.60
2018-04-12T11:52:45.983Z,22.70
2018-04-12T11:55:12.351Z,22.50
2018-04-12T11:57:38.623Z,22.30
2018-04-12T12:00:05.174Z,22.40
2018-04-12T12:02:31.784Z,22.50
2018-04-12T12:04:58.851Z,22.70
2018-04-12T12:07:25.360Z,22.90
2018-04-12T12:09:52.173Z,22.70
2018-04-12T12:12:18.582Z,22.90
2018-04-12T12:14:44.991Z,23.20
2018-04-12T12:17:12.016Z,23.90
2018-04-12T12:19:38.295Z,23.90
2018-04-12T12:22:04.724Z,23.50
2018-04-12T12:24:31.722Z,23.80
2018-04-12T12:26:59.052Z,23.80
2018-04-12T12:29:26.264Z,24.40
2018-04-12T12:31:53.322Z,24.40
2018-04-12T12:34:19.522Z,24.40
2018-04-12T12:36:46.497Z,24.20
2018-04-12T12:39:14.550Z,24.20
2018-04-12T12:41:41.727Z,24.00
2018-04-12T12:44:08.752Z,23.60
2018-04-12T12:46:38.207Z,23.60
2018-04-12T12:49:04.808Z,23.50
2018-04-12T12:51:31.715Z,23.40
2018-04-12T12:53:58.141Z,23.30
2018-04-12T12:56:25.635Z,23.20
2018-04-12T12:58:52.318Z,23.10
2018-04-12T13:01:19.010Z,22.90
2018-04-12T13:03:45.421Z,22.70
2018-04-12T13:06:12.207Z,22.50
2018-04-12T13:08:38.609Z,22.50
2018-04-12T13:11:06.271Z,22.50
2018-04-12T13:13:33.300Z,22.40
2018-04-12T13:16:00.606Z,22.20
2018-04-12T13:18:27.973Z,21.80
2018-04-12T13:20:54.488Z,21.90
2018-04-12T13:23:24.827Z,21.90
2018-04-12T13:25:51.269Z,22.00
2018-04-12T13:28:17.912Z,21.90
2018-04-12T13:30:44.333Z,21.60
2018-04-12T13:33:10.690Z,21.60
2018-04-12T13:35:39.619Z,21.40
2018-04-12T13:38:06.182Z,21.50
2018-04-12T13:40:33.102Z,21.30
2018-04-12T13:42:59.579Z,21.40
2018-04-12T13:45:27.915Z,21.40
2018-04-12T13:47:56.334Z,21.50
2018-04-12T13:50:22.777Z,21.40
2018-04-12T13:52:49.174Z,21.40
2018-04-12T13:55:15.608Z,21.40
2018-04-12T13:57:41.919Z,21.40
2018-04-12T14:00:08.420Z,21.40
2018-04-12T14:02:34.840Z,21.30
2018-04-12T14:05:01.202Z,21.50
2018-04-12T14:07:27.914Z,21.60
2018-04-12T14:09:54.364Z,21.70
2018-04-12T14:12:20.687Z,21.80
2018-04-12T14:14:47.256Z,21.80
2018-04-12T14:17:14.275Z,22.10
2018-04-12T14:19:41.944Z,22.40
2018-04-12T14:22:08.525Z,22.50
2018-04-12T14:24:34.946Z,22.60
2018-04-12T14:27:01.331Z,22.60
2018-04-12T14:29:27.723Z,22.70
2018-04-12T14:31:54.006Z,23.00
2018-04-12T14:34:20.828Z,23.00
2018-04-12T14:36:48.134Z,22.60
2018-04-12T14:39:15.176Z,22.70
2018-04-12T14:41:41.729Z,22.40
2018-04-12T14:44:08.093Z,22.40
2018-04-12T14:46:34.427Z,22.50
2018-04-12T14:49:00.750Z,22.50
2018-04-12T14:51:27.165Z,22.40
2018-04-12T14:53:54.872Z,22.30
2018-04-12T14:56:22.307Z,22.30
2018-04-12T14:58:50.421Z,22.30
2018-04-12T15:01:16.897Z,22.20
2018-04-12T15:03:43.245Z,22.20
2018-04-12T15:06:09.587Z,22.20
2018-04-12T15:08:35.874Z,22.20
2018-04-12T15:11:03.177Z,22.10
2018-04-12T15:16:04.224Z,22.30
2018-04-12T15:18:30.700Z,22.50
2018-04-12T15:20:59.801Z,22.40
2018-04-12T15:23:29.292Z,22.50
2018-04-12T15:26:01.351Z,22.50
2018-04-12T15:28:35.559Z,22.60
2018-04-12T15:31:05.835Z,22.40
2018-04-12T15:33:32.146Z,22.20
2018-04-12T15:35:58.771Z,22.20
2018-04-12T15:38:25.366Z,22.20
2018-04-12T15:40:51.735Z,22.20
2018-04-12T15:43:18.051Z,22.00
2018-04-12T15:45:44.438Z,21.90
2018-04-12T15:48:11.909Z,21.90
2018-04-12T15:50:38.604Z,21.90
2018-04-12T15:53:05.015Z,21.90
2018-04-12T15:55:31.389Z,21.80
2018-04-12T15:57:57.669Z,21.80
2018-04-12T16:00:24.386Z,21.70
2018-04-12T16:02:50.743Z,21.70
2018-04-12T16:05:17.036Z,21.60
2018-04-12T16:07:43.312Z,21.70
2018-04-12T16:10:10.292Z,21.60
2018-04-12T16:12:37.530Z,21.40
2018-04-12T16:15:03.948Z,21.40
2018-04-12T16:17:30.219Z,21.30
2018-04-12T16:19:56.574Z,21.30
2018-04-12T16:22:23.676Z,21.30
2018-04-12T16:24:51.407Z,21.20
2018-04-12T16:27:17.893Z,21.40
2018-04-12T16:29:46.256Z,21.60
2018-04-12T16:32:12.637Z,21.70
2018-04-12T16:34:40.616Z,21.80
2018-04-12T16:37:09.448Z,21.80
2018-04-12T16:39:35.823Z,21.60
2018-04-12T16:45:04.718Z,21.60
2018-04-12T16:47:31.219Z,21.40
2018-04-12T16:49:57.530Z,21.40
2018-04-12T16:52:24.398Z,21.20
2018-04-12T16:54:53.533Z,21.10
2018-04-12T16:57:40.323Z,21.00
2018-04-12T17:00:06.681Z,21.10
2018-04-12T17:02:33.796Z,21.20
2018-04-12T17:05:00.088Z,21.30
2018-04-12T17:07:26.544Z,21.40
2018-04-12T17:09:52.888Z,21.40
2018-04-12T17:12:22.636Z,21.30
2018-04-12T17:14:49.140Z,21.10
2018-04-12T17:17:15.485Z,21.30
2018-04-12T17:19:43.130Z,21.20
2018-04-12T17:22:09.735Z,21.00
2018-04-12T17:24:39.336Z,20.80
2018-04-12T17:27:06.384Z,20.60
2018-04-12T17:29:33.428Z,20.60
2018-04-12T17:32:03.090Z,20.40
2018-04-12T17:34:35.355Z,20.30
2018-04-12T17:37:03.751Z,20.20
2018-04-12T17:39:30.200Z,20.00
2018-04-12T17:44:28.934Z,19.60
2018-04-12T17:46:55.507Z,19.50
2018-04-12T17:49:32.136Z,19.30
2018-04-12T17:51:58.652Z,19.30
2018-04-12T17:54:26.271Z,19.20
2018-04-12T17:56:53.093Z,19.10
2018-04-12T18:01:55.421Z,19.00
2018-04-12T18:04:23.082Z,18.80
2018-04-12T18:06:50.455Z,18.70
2018-04-12T18:09:19.379Z,18.60
2018-04-12T18:11:48.325Z,18.30
2018-04-12T18:14:19.584Z,18.30
2018-04-12T18:16:47.527Z,18.30
2018-04-12T18:19:14.141Z,18.30
2018-04-12T18:21:40.570Z,18.30
2018-04-12T18:24:07.799Z,18.00
2018-04-12T18:26:35.363Z,17.90
2018-04-12T18:29:07.443Z,17.90
2018-04-12T18:31:51.465Z,17.80
2018-04-12T18:34:18.654Z,17.50
2018-04-12T18:36:44.935Z,17.50
2018-04-12T18:39:11.346Z,17.40
2018-04-12T18:41:37.663Z,17.40
2018-04-12T18:44:03.897Z,17.30
2018-04-12T18:46:31.183Z,17.30
2018-04-12T18:48:57.452Z,17.20
2018-04-12T18:51:23.779Z,17.10
2018-04-12T18:53:50.106Z,17.00
2018-04-12T18:56:16.923Z,17.00
2018-04-12T18:58:43.265Z,17.00
2018-04-12T19:01:09.587Z,17.00
2018-04-12T19:03:36.025Z,17.00
2018-04-12T19:06:06.499Z,16.90
2018-04-12T19:08:33.484Z,16.90
2018-04-12T19:11:05.243Z,16.70
2018-04-12T19:16:37.224Z,16.50
2018-04-12T19:19:03.781Z,16.50
2018-04-12T19:21:30.055Z,16.50
2018-04-12T19:23:56.325Z,16.40
2018-04-12T19:26:22.687Z,16.40
2018-04-12T19:28:48.905Z,16.30
2018-04-12T19:31:15.385Z,16.30
2018-04-12T19:33:41.830Z,16.20
2018-04-12T19:36:08.383Z,16.20
2018-04-12T19:38:34.686Z,16.20
2018-04-12T19:41:01.768Z,16.20
2018-04-12T19:43:28.022Z,16.20
2018-04-12T19:45:54.451Z,15.90
2018-04-12T19:48:20.672Z,15.80
2018-04-12T19:50:46.886Z,15.80
2018-04-12T19:53:13.143Z,15.70
2018-04-12T19:55:40.912Z,15.30
2018-04-12T19:58:07.818Z,15.30
2018-04-12T20:00:34.558Z,15.30
2018-04-12T20:03:02.633Z,15.30
2018-04-12T20:05:29.073Z,15.30
2018-04-12T20:08:08.000Z,15.20
2018-04-12T20:10:35.516Z,15.20
2018-04-12T20:13:22.781Z,15.20
2018-04-12T20:15:50.134Z,15.10
2018-04-12T20:18:21.856Z,15.00
2018-04-12T20:21:05.502Z,15.00
2018-04-12T20:23:38.580Z,14.90
2018-04-12T20:44:38.894Z,14.30
2018-04-12T20:50:08.606Z,14.20
2018-04-12T20:52:35.300Z,14.10
2018-04-12T20:55:01.929Z,14.00
2018-04-12T20:57:31.085Z,14.00
2018-04-12T20:59:58.565Z,13.80
2018-04-12T21:02:36.040Z,13.80
2018-04-12T21:05:06.188Z,13.80
2018-04-12T21:10:35.905Z,13.80
2018-04-12T21:13:05.980Z,13.70
2018-04-12T21:15:38.386Z,13.60
2018-04-12T21:18:06.626Z,13.60
2018-04-12T21:23:36.192Z,13.30
2018-04-12T21:26:05.743Z,13.30
2018-04-12T21:28:36.078Z,13.30
2018-04-12T21:31:08.433Z,13.20
2018-04-12T21:33:35.989Z,13.20
2018-04-12T21:36:08.331Z,13.00
2018-04-12T21:38:34.738Z,13.00
2018-04-12T21:41:02.150Z,12.90
2018-04-12T21:43:36.278Z,12.90
2018-04-12T21:46:06.693Z,12.80
2018-04-12T21:48:46.975Z,12.70
2018-04-12T21:51:13.328Z,12.60
2018-04-12T21:53:39.666Z,12.60
2018-04-12T21:56:05.931Z,12.60
2018-04-12T21:58:32.187Z,12.60
2018-04-12T22:00:58.383Z,12.60
2018-04-12T22:03:24.642Z,12.60
2018-04-12T22:05:50.856Z,12.60
2018-04-12T22:08:18.091Z,12.50
2018-04-12T22:10:47.984Z,12.50
2018-04-12T22:13:15.293Z,12.50
2018-04-12T22:15:41.573Z,12.50
2018-04-12T22:18:07.957Z,12.40
2018-04-12T22:20:34.313Z,12.30
2018-04-12T22:23:00.638Z,12.30
2018-04-12T22:25:26.998Z,12.30
2018-04-12T22:27:54.695Z,12.30
2018-04-12T22:30:23.034Z,12.20
2018-04-12T22:32:49.763Z,12.10
2018-04-12T22:35:16.590Z,12.10
2018-04-12T22:37:43.015Z,12.00
2018-04-12T22:40:10.027Z,12.00
2018-04-12T22:42:37.584Z,11.90
2018-04-12T22:45:06.181Z,11.90
2018-04-12T22:47:36.125Z,11.90
2018-04-12T22:50:05.673Z,11.90
2018-04-12T22:52:36.448Z,11.80
2018-04-12T22:55:05.891Z,11.80
2018-04-12T22:57:36.041Z,11.80
2018-04-12T23:00:05.632Z,11.70
2018-04-12T23:02:35.761Z,11.70
2018-04-12T23:05:05.948Z,11.70
2018-04-12T23:07:37.233Z,11.70
2018-04-12T23:10:05.568Z,11.70
2018-04-12T23:12:31.814Z,11.70
2018-04-12T23:17:37.077Z,11.60
2018-04-12T23:20:07.333Z,11.60
2018-04-12T23:22:36.281Z,11.60
2018-04-12T23:25:02.549Z,11.50
2018-04-12T23:27:36.164Z,11.40
2018-04-12T23:30:11.604Z,11.40
2018-04-12T23:32:38.252Z,11.40
2018-04-12T23:35:04.775Z,11.30
2018-04-12T23:37:36.343Z,11.40
2018-04-12T23:40:07.217Z,11.30
2018-04-12T23:42:35.793Z,11.30
2018-04-12T23:45:08.517Z,11.30
2018-04-12T23:47:36.280Z,11.30
2018-04-12T23:50:06.628Z,11.20
2018-04-12T23:52:36.954Z,11.20
2018-04-12T23:55:06.185Z,11.20
2018-04-12T23:57:35.689Z,11.10
